Time;durP1;ratioP1;P1;durP2;ratioP2;P2;SDS_P1;SDS_P2;PMS_P1;PMS_P2;Temp;Humidity;BMP_temperature;BMP_pressure;BME280_temperature;BME280_humidity;BME280_pressure;Samples;Min_cycle;Max_cycle;Signal;HPM_P1;HPM_P2
2021/06/06 00:00:09;;;;;;;4.77;3.37;;;;;;;12.99;100.00;94342.09;5073664;28;20654;-77
2021/06/06 00:02:35;;;;;;;5.77;3.73;;;;;;;13.04;100.00;94347.53;5073778;28;20206;-76
2021/06/06 00:05:01;;;;;;;5.53;3.60;;;;;;;13.04;100.00;94347.53;5073476;28;20270;-77
2021/06/06 00:07:27;;;;;;;4.20;3.20;;;;;;;13.02;100.00;94342.50;5073466;28;20585;-77
2021/06/06 00:09:54;;;;;;;6.43;3.80;;;;;;;13.06;100.00;94346.34;5073516;28;20295;-76
2021/06/06 00:12:20;;;;;;;5.77;3.83;;;;;;;13.02;100.00;94339.06;5073522;28;20264;-75
2021/06/06 00:14:46;;;;;;;6.57;3.93;;;;;;;13.00;100.00;94335.84;5073305;28;20207;-76
2021/06/06 00:17:12;;;;;;;8.73;5.10;;;;;;;13.02;100.00;94341.69;5073539;28;20214;-77
2021/06/06 00:19:39;;;;;;;9.90;6.03;;;;;;;13.06;100.00;94340.31;5073366;28;20242;-76
2021/06/06 00:22:08;;;;;;;13.03;6.00;;;;;;;13.05;100.00;94343.91;5073305;28;20199;-76
2021/06/06 00:24:36;;;;;;;16.10;7.20;;;;;;;13.00;100.00;94341.91;5073060;28;20261;-76
2021/06/06 00:27:05;;;;;;;15.17;8.10;;;;;;;13.02;100.00;94333.84;5073089;28;20209;-78
2021/06/06 00:29:31;;;;;;;20.27;9.20;;;;;;;12.99;100.00;94339.47;5073291;28;20294;-76
2021/06/06 00:31:57;;;;;;;14.67;9.17;;;;;;;13.02;100.00;94328.59;5073320;28;20256;-78
2021/06/06 00:34:25;;;;;;;17.03;9.50;;;;;;;13.05;100.00;94336.84;5073238;28;20210;-79
2021/06/06 00:36:51;;;;;;;18.17;10.27;;;;;;;13.02;100.00;94331.22;5074776;28;20205;-77
2021/06/06 00:39:17;;;;;;;23.07;9.80;;;;;;;13.05;100.00;94338.69;5073631;28;20662;-77
2021/06/06 00:41:45;;;;;;;16.70;9.63;;;;;;;12.99;100.00;94329.00;5072950;28;20301;-77
2021/06/06 00:44:14;;;;;;;18.50;9.30;;;;;;;12.98;100.00;94330.00;5073140;28;20226;-78
2021/06/06 00:46:41;;;;;;;16.50;8.80;;;;;;;13.01;100.00;94330.41;5072907;28;20230;-76
2021/06/06 00:49:07;;;;;;;16.13;8.90;;;;;;;12.94;100.00;94334.84;5073152;28;20259;-77
2021/06/06 00:51:40;;;;;;;18.07;9.00;;;;;;;12.90;100.00;94334.44;5072981;28;20202;-77
2021/06/06 00:54:12;;;;;;;16.17;8.83;;;;;;;12.88;100.00;94333.03;5072880;28;20214;-77
2021/06/06 00:56:39;;;;;;;18.73;10.25;;;;;;;12.88;100.00;94333.81;5072014;28;20442;-79
2021/06/06 00:59:05;;;;;;;15.70;8.27;;;;;;;12.87;100.00;94332.22;5073024;28;20657;-75
2021/06/06 01:01:36;;;;;;;18.63;9.27;;;;;;;12.93;100.00;94334.03;5072931;28;20210;-78
2021/06/06 01:04:03;;;;;;;17.07;8.30;;;;;;;12.78;100.00;94328.97;5072880;28;20231;-77
2021/06/06 01:06:32;;;;;;;14.57;8.27;;;;;;;12.82;100.00;94332.00;5072785;28;20321;-76
2021/06/06 01:09:00;;;;;;;17.10;8.67;;;;;;;12.84;100.00;94337.88;5072786;28;20199;-77
2021/06/06 01:11:32;;;;;;;17.87;9.10;;;;;;;12.89;100.00;94330.22;5072757;28;20666;-76
2021/06/06 01:14:04;;;;;;;16.93;9.93;;;;;;;12.80;100.00;94330.59;5072903;28;20209;-76
2021/06/06 01:16:35;;;;;;;13.83;8.30;;;;;;;12.82;100.00;94332.00;5072779;28;20620;-76
2021/06/06 01:19:07;;;;;;;17.83;10.53;;;;;;;12.83;100.00;94336.25;5072690;28;20195;-78
2021/06/06 01:21:49;;;;;;;18.93;10.43;;;;;;;12.78;100.00;94331.59;5072807;28;20199;-76
2021/06/06 01:24:28;;;;;;;22.40;11.27;;;;;;;12.77;100.00;94331.78;5072514;28;20242;-77
2021/06/06 01:26:58;;;;;;;24.13;12.10;;;;;;;12.76;100.00;94330.19;5072629;28;20600;-79
2021/06/06 01:29:34;;;;;;;22.57;12.10;;;;;;;12.75;100.00;94329.38;5072592;28;20198;-78
2021/06/06 01:32:06;;;;;;;21.60;10.97;;;;;;;12.82;100.00;94318.91;5072748;28;20202;-78
2021/06/06 01:34:33;;;;;;;17.30;8.80;;;;;;;12.63;100.00;94319.69;5072553;28;20654;-77
2021/06/06 01:37:07;;;;;;;17.37;9.57;;;;;;;12.69;100.00;94318.88;5072649;28;20203;-78
2021/06/06 01:39:41;;;;;;;16.17;8.63;;;;;;;12.67;100.00;94315.66;5072530;28;20294;-77
2021/06/06 01:42:11;;;;;;;21.70;9.90;;;;;;;12.66;100.00;94317.47;5075190;28;20281;-77
2021/06/06 01:44:39;;;;;;;22.17;9.77;;;;;;;12.71;100.00;94309.84;5076395;28;20317;-76
2021/06/06 01:47:10;;;;;;;23.73;10.17;;;;;;;12.68;100.00;94312.84;5076317;28;20198;-76
2021/06/06 01:49:43;;;;;;;26.23;10.17;;;;;;;12.65;100.00;94312.44;5076286;28;20207;-77
2021/06/06 01:52:13;;;;;;;20.90;10.30;;;;;;;12.61;100.00;94316.44;5076245;28;20214;-76
2021/06/06 01:54:42;;;;;;;15.30;7.03;;;;;;;12.56;100.00;94317.88;5075984;28;20225;-78
2021/06/06 01:57:11;;;;;;;12.63;5.80;;;;;;;12.56;100.00;94310.00;5076229;28;20206;-77
2021/06/06 01:59:43;;;;;;;9.33;5.03;;;;;;;12.52;100.00;94308.81;5076060;28;20569;-76
2021/06/06 02:02:11;;;;;;;8.80;4.10;;;;;;;12.52;100.00;94306.19;5076039;28;20202;-77
2021/06/06 02:04:41;;;;;;;7.33;4.10;;;;;;;12.53;100.00;94310.41;5075778;28;20317;-77
2021/06/06 02:07:11;;;;;;;7.23;3.70;;;;;;;12.51;100.00;94306.38;5075747;28;20211;-76
2021/06/06 02:09:44;;;;;;;9.40;4.03;;;;;;;12.50;100.00;94305.56;5076043;28;20546;-77
2021/06/06 02:12:11;;;;;;;12.00;4.73;;;;;;;12.55;100.00;94308.38;5075918;28;20202;-78
2021/06/06 02:14:41;;;;;;;6.80;3.60;;;;;;;12.53;100.00;94304.38;5075838;28;20344;-79
2021/06/06 02:17:10;;;;;;;8.20;4.40;;;;;;;12.54;100.00;94303.34;5075693;28;20207;-78
2021/06/06 02:19:39;;;;;;;8.45;4.93;;;;;;;12.65;100.00;94301.97;5075012;28;20438;-78
2021/06/06 02:22:13;;;;;;;12.87;5.40;;;;;;;12.61;100.00;94303.34;5075772;28;20604;-78
2021/06/06 02:24:40;;;;;;;10.30;4.50;;;;;;;12.69;100.00;94303.16;5075183;28;20597;-77
2021/06/06 02:27:13;;;;;;;19.57;6.47;;;;;;;12.70;100.00;94305.59;5075546;28;20202;-77
2021/06/06 02:29:49;;;;;;;14.77;7.07;;;;;;;12.73;100.00;94294.72;5077895;28;20195;-78
2021/06/06 02:32:20;;;;;;;17.50;8.83;;;;;;;12.70;100.00;94299.56;5075394;28;20226;-77
2021/06/06 02:34:56;;;;;;;17.03;7.80;;;;;;;12.62;100.00;94297.91;5075613;28;20195;-78
2021/06/06 02:37:27;;;;;;;19.97;9.57;;;;;;;12.63;100.00;94296.13;5075461;28;20657;-77
2021/06/06 02:39:58;;;;;;;18.87;8.80;;;;;;;12.63;100.00;94298.75;5075336;28;20198;-78
2021/06/06 02:42:30;;;;;;;20.80;8.67;;;;;;;12.66;100.00;94299.16;5075304;28;20202;-79
2021/06/06 02:45:00;;;;;;;21.70;8.97;;;;;;;12.68;100.00;94291.88;5075047;28;20234;-79
2021/06/06 02:47:29;;;;;;;17.13;8.10;;;;;;;12.65;100.00;94292.28;5075218;28;20210;-77
2021/06/06 02:49:57;;;;;;;17.47;8.77;;;;;;;12.67;100.00;94285.03;5075176;28;20203;-77
2021/06/06 02:52:38;;;;;;;20.20;8.47;;;;;;;12.66;100.00;94290.50;5073758;28;20203;-78
2021/06/06 02:55:08;;;;;;;14.40;7.73;;;;;;;12.66;100.00;94283.44;5074996;28;20279;-78
2021/06/06 02:57:39;;;;;;;14.33;6.20;;;;;;;12.66;100.00;94285.25;5075083;28;20206;-79
2021/06/06 03:00:11;;;;;;;13.93;6.67;;;;;;;12.61;100.00;94279.78;5074943;28;20203;-78
2021/06/06 03:02:43;;;;;;;16.10;6.70;;;;;;;12.58;100.00;94281.00;5074944;28;20234;-78
2021/06/06 03:05:13;;;;;;;18.07;7.57;;;;;;;12.63;100.00;94283.03;5074837;28;20223;-78
2021/06/06 03:07:45;;;;;;;17.00;7.83;;;;;;;12.61;100.00;94280.59;5074647;28;20231;-79
2021/06/06 03:10:14;;;;;;;11.13;6.20;;;;;;;12.62;100.00;94282.19;5074931;28;20203;-79
2021/06/06 03:12:43;;;;;;;13.97;6.30;;;;;;;12.64;100.00;94282.84;5074496;28;20203;-80
2021/06/06 03:15:12;;;;;;;12.77;6.07;;;;;;;12.67;100.00;94284.22;5074707;28;20289;-80
2021/06/06 03:17:42;;;;;;;13.80;6.77;;;;;;;12.69;100.00;94277.78;5074768;28;20610;-77
2021/06/06 03:20:13;;;;;;;15.40;7.53;;;;;;;12.69;100.00;94279.59;5074504;28;20558;-77
2021/06/06 03:22:41;;;;;;;12.80;6.93;;;;;;;12.65;100.00;94281.00;5074518;28;20206;-77
2021/06/06 03:25:12;;;;;;;18.17;8.17;;;;;;;12.54;100.00;94274.53;5074034;28;20243;-77
2021/06/06 03:27:45;;;;;;;17.23;8.50;;;;;;;12.55;100.00;94274.34;5074502;28;20203;-77
2021/06/06 03:30:30;;;;;;;17.30;8.50;;;;;;;12.56;100.00;94273.34;5074362;28;20199;-78
2021/06/06 03:32:58;;;;;;;13.47;7.37;;;;;;;12.54;100.00;94275.38;5074407;28;20195;-77
2021/06/06 03:35:25;;;;;;;16.17;7.53;;;;;;;12.50;100.00;94271.50;5074130;28;20256;-78
2021/06/06 03:37:51;;;;;;;13.17;7.23;;;;;;;12.50;100.00;94271.50;5074212;28;20194;-78
2021/06/06 03:40:18;;;;;;;16.93;7.70;;;;;;;12.51;100.00;94270.53;5074057;28;20234;-79
2021/06/06 03:42:48;;;;;;;18.20;8.80;;;;;;;12.50;100.00;94274.13;5074107;28;20207;-78
2021/06/06 03:45:17;;;;;;;18.13;8.60;;;;;;;12.48;100.00;94270.91;5073837;28;20243;-78
2021/06/06 03:47:46;;;;;;;15.07;7.73;;;;;;;12.52;100.00;94277.38;5074048;28;20203;-78
2021/06/06 03:50:15;;;;;;;14.23;8.17;;;;;;;12.54;100.00;94267.50;5073994;28;20202;-78
2021/06/06 03:52:44;;;;;;;9.43;5.67;;;;;;;12.42;100.00;94269.09;5073693;28;20688;-77
2021/06/06 03:55:15;;;;;;;10.73;6.17;;;;;;;12.41;100.00;94264.88;5073769;28;20287;-77
2021/06/06 03:57:42;;;;;;;13.90;6.60;;;;;;;12.43;100.00;94267.28;5073671;28;20194;-77
2021/06/06 04:00:22;;;;;;;13.47;7.00;;;;;;;12.40;100.00;94264.03;5073668;28;20561;-77
2021/06/06 04:02:48;;;;;;;11.30;6.57;;;;;;;12.43;100.00;94275.94;5073663;28;20206;-78
2021/06/06 04:05:16;;;;;;;19.57;7.67;;;;;;;12.42;100.00;94269.09;5073113;28;20222;-78
2021/06/06 04:07:42;;;;;;;9.43;6.00;;;;;;;12.47;100.00;94266.66;5073661;28;20203;-77
2021/06/06 04:10:09;;;;;;;8.47;5.20;;;;;;;12.43;100.00;94272.53;5073394;28;20658;-79
2021/06/06 04:12:38;;;;;;;6.97;3.60;;;;;;;12.31;100.00;94270.50;5073392;28;20195;-78
2021/06/06 04:15:05;;;;;;;9.30;5.23;;;;;;;12.41;100.00;94264.88;5073345;28;20297;-77
2021/06/06 04:17:32;;;;;;;9.57;5.67;;;;;;;12.42;100.00;94265.66;5073396;28;20256;-80
2021/06/06 04:19:58;;;;;;;10.37;5.10;;;;;;;12.45;100.00;94265.28;5073402;28;20202;-78
2021/06/06 04:22:27;;;;;;;8.23;4.80;;;;;;;12.43;100.00;94267.28;5073234;28;20201;-79
2021/06/06 04:24:55;;;;;;;6.50;3.87;;;;;;;12.35;100.00;94263.84;5073747;28;20337;-78
2021/06/06 04:27:21;;;;;;;5.80;3.03;;;;;;;12.35;100.00;94263.84;5075377;28;20767;-77
2021/06/06 04:29:50;;;;;;;6.70;3.67;;;;;;;12.42;100.00;94255.19;5073322;28;20210;-77
2021/06/06 04:32:20;;;;;;;9.47;4.43;;;;;;;12.49;100.00;94256.81;5073193;28;20210;-78
2021/06/06 04:34:50;;;;;;;9.07;4.63;;;;;;;12.46;100.00;94251.97;5073188;28;20561;-77
2021/06/06 04:37:20;;;;;;;8.27;3.90;;;;;;;12.52;100.00;94259.06;5073263;28;20202;-78
2021/06/06 04:39:46;;;;;;;6.70;3.80;;;;;;;12.47;100.00;94258.03;5073049;28;20207;-78
2021/06/06 04:42:17;;;;;;;8.70;4.07;;;;;;;12.53;100.00;94260.66;5073083;28;20203;-77
2021/06/06 04:44:44;;;;;;;7.80;4.07;;;;;;;12.53;100.00;94258.03;5072905;28;20701;-78
2021/06/06 04:47:11;;;;;;;6.47;3.63;;;;;;;12.58;100.00;94258.22;5073001;28;20248;-80
2021/06/06 04:49:38;;;;;;;2.63;1.70;;;;;;;12.42;100.00;94260.44;5072874;28;20202;-77
2021/06/06 04:52:06;;;;;;;3.00;1.97;;;;;;;12.40;100.00;94260.63;5072893;28;20206;-77
2021/06/06 04:54:32;;;;;;;3.20;2.33;;;;;;;12.39;100.00;94261.66;5073004;28;20206;-79
2021/06/06 04:56:59;;;;;;;2.70;1.70;;;;;;;12.37;100.00;94259.22;5073036;28;20214;-77
2021/06/06 04:59:27;;;;;;;3.23;2.40;;;;;;;12.40;100.00;94258.81;5072838;28;20289;-78
2021/06/06 05:01:53;;;;;;;4.47;2.90;;;;;;;12.40;100.00;94260.63;5072862;28;20230;-77
2021/06/06 05:04:20;;;;;;;4.80;2.63;;;;;;;12.45;100.00;94262.66;5072565;28;20202;-78
2021/06/06 05:06:46;;;;;;;6.13;3.60;;;;;;;12.48;100.00;94255.19;5073081;28;20199;-78
2021/06/06 05:09:13;;;;;;;6.17;3.63;;;;;;;12.56;100.00;94256.84;5073020;28;20194;-80
2021/06/06 05:11:39;;;;;;;6.90;3.57;;;;;;;12.69;100.00;94253.38;5072897;28;20276;-79
2021/06/06 05:14:06;;;;;;;6.87;3.00;;;;;;;12.72;100.00;94256.44;5072755;28;20650;-78
2021/06/06 05:16:33;;;;;;;8.57;2.70;;;;;;;12.76;100.00;94254.22;5074917;28;20629;-78
2021/06/06 05:19:00;;;;;;;3.70;2.63;;;;;;;12.81;100.00;94259.66;5076699;28;20654;-79
2021/06/06 05:21:26;;;;;;;2.97;2.00;;;;;;;12.78;100.00;94266.09;5076962;28;20202;-78
2021/06/06 05:23:52;;;;;;;2.43;1.40;;;;;;;12.80;100.00;94260.66;5076560;28;20258;-78
2021/06/06 05:26:21;;;;;;;1.70;1.30;;;;;;;12.63;100.00;94257.63;5076620;28;20231;-79
2021/06/06 05:28:47;;;;;;;1.77;1.60;;;;;;;12.69;100.00;94263.88;5076634;28;20279;-79
2021/06/06 05:31:19;;;;;;;1.90;0.90;;;;;;;12.64;100.00;94263.66;5076716;28;20286;-78
2021/06/06 05:33:47;;;;;;;1.93;1.10;;;;;;;12.65;100.00;94260.84;5076802;28;20207;-78
2021/06/06 05:36:17;;;;;;;0.67;0.67;;;;;;;12.49;100.00;94259.44;5076564;28;20563;-79
2021/06/06 05:38:44;;;;;;;2.63;0.90;;;;;;;12.50;100.00;94260.25;5076565;28;20213;-79
2021/06/06 05:41:10;;;;;;;0.50;0.50;;;;;;;12.52;100.00;94264.28;5076507;28;20207;-78
2021/06/06 05:43:38;;;;;;;1.00;0.70;;;;;;;12.49;100.00;94261.22;5076531;28;20286;-77
2021/06/06 05:46:06;;;;;;;0.70;0.70;;;;;;;12.52;100.00;94266.06;5076187;28;20230;-78
2021/06/06 05:48:32;;;;;;;0.70;0.70;;;;;;;12.56;100.00;94267.31;5076279;28;20649;-78
2021/06/06 05:51:02;;;;;;;3.13;1.13;;;;;;;12.58;100.00;94265.28;5076459;28;20320;-79
2021/06/06 05:53:29;;;;;;;0.83;0.83;;;;;;;12.63;100.00;94262.06;5076196;28;20207;-78
2021/06/06 05:55:55;;;;;;;1.90;1.40;;;;;;;12.69;100.00;94258.63;5076354;28;20290;-79
2021/06/06 05:58:21;;;;;;;0.93;0.80;;;;;;;12.70;100.00;94261.06;5076087;28;20310;-79
2021/06/06 06:00:49;;;;;;;0.70;0.70;;;;;;;12.74;100.00;94254.41;5076044;28;20727;-78
2021/06/06 06:03:16;;;;;;;2.28;0.70;;;;;;;12.80;100.00;94260.66;5076025;28;20205;-77
2021/06/06 06:05:42;;;;;;;0.50;0.50;;;;;;;12.78;100.00;94249.56;5076101;28;20321;-77
2021/06/06 06:08:19;;;;;;;0.57;0.57;;;;;;;12.71;100.00;94259.25;5076278;28;20199;-77
2021/06/06 06:10:46;;;;;;;0.80;0.70;;;;;;;12.80;100.00;94260.66;5075958;28;20334;-76
2021/06/06 06:13:12;;;;;;;0.70;0.70;;;;;;;12.89;100.00;94261.25;5075819;28;20695;-77
2021/06/06 06:15:40;;;;;;;2.00;1.00;;;;;;;13.02;100.00;94257.81;5076049;28;20233;-77
2021/06/06 06:18:10;;;;;;;1.33;1.20;;;;;;;13.07;100.00;94264.09;5075735;28;20588;-76
2021/06/06 06:20:36;;;;;;;1.77;1.20;;;;;;;13.18;100.00;94270.50;5075486;28;20201;-77
2021/06/06 06:23:02;;;;;;;1.40;1.27;;;;;;;13.30;100.00;94268.06;5075337;28;20199;-77
2021/06/06 06:25:32;;;;;;;1.17;0.90;;;;;;;13.42;100.00;94265.66;5075423;28;20222;-78
2021/06/06 06:27:58;;;;;;;1.80;1.05;;;;;;;13.46;100.00;94270.28;5075219;28;20440;-79
2021/06/06 06:30:27;;;;;;;2.17;1.20;;;;;;;13.56;100.00;94255.94;5075668;28;20195;-78
2021/06/06 06:32:53;;;;;;;1.10;1.00;;;;;;;13.54;100.00;94264.00;5075441;28;20205;-78
2021/06/06 06:35:21;;;;;;;1.10;1.00;;;;;;;13.31;100.00;94265.25;5075369;28;20202;-79
2021/06/06 06:37:47;;;;;;;1.73;1.20;;;;;;;13.24;100.00;94264.47;5075364;28;20199;-79
2021/06/06 06:40:15;;;;;;;1.23;1.10;;;;;;;13.32;100.00;94266.91;5075276;28;20245;-78
2021/06/06 06:42:42;;;;;;;0.77;0.77;;;;;;;13.19;100.00;94268.69;5075509;28;20206;-77
2021/06/06 06:45:11;;;;;;;1.07;0.97;;;;;;;13.31;100.00;94269.69;5075104;28;20283;-78
2021/06/06 06:47:37;;;;;;;0.60;0.60;;;;;;;13.35;100.00;94270.91;5075219;28;20301;-79
2021/06/06 06:50:04;;;;;;;0.50;0.50;;;;;;;13.23;100.00;94273.31;5075187;28;20237;-77
2021/06/06 06:52:36;;;;;;;0.60;0.60;;;;;;;13.13;100.00;94270.31;5075037;28;20268;-77
2021/06/06 06:55:04;;;;;;;0.47;0.40;;;;;;;13.07;100.00;94278.97;5075310;28;20209;-77
2021/06/06 06:57:30;;;;;;;2.53;0.70;;;;;;;13.07;100.00;94273.75;5075174;28;20211;-76
2021/06/06 06:59:58;;;;;;;0.50;0.50;;;;;;;13.11;100.00;94275.75;5074768;28;20259;-77
2021/06/06 07:02:27;;;;;;;0.53;0.47;;;;;;;13.17;100.00;94274.13;5075055;28;20199;-78
2021/06/06 07:04:53;;;;;;;0.50;0.50;;;;;;;13.31;100.00;94275.72;5074734;28;20231;-77
2021/06/06 07:07:19;;;;;;;1.43;0.47;;;;;;;13.26;100.00;94272.13;5075123;28;20203;-79
2021/06/06 07:09:49;;;;;;;0.50;0.50;;;;;;;13.18;100.00;94274.97;5074847;28;20496;-78
2021/06/06 07:12:15;;;;;;;0.47;0.47;;;;;;;13.23;100.00;94273.31;5074912;28;20294;-77
2021/06/06 07:14:41;;;;;;;2.27;0.40;;;;;;;13.32;100.00;94280.00;5074680;28;20298;-77
2021/06/06 07:17:08;;;;;;;0.60;0.60;;;;;;;13.41;100.00;94274.53;5074642;28;20202;-77
2021/06/06 07:19:34;;;;;;;0.50;0.50;;;;;;;13.37;100.00;94274.13;5074589;28;20226;-77
2021/06/06 07:22:00;;;;;;;0.60;0.60;;;;;;;13.53;100.00;94282.59;5074370;28;20661;-78
2021/06/06 07:24:26;;;;;;;0.80;0.40;;;;;;;13.47;100.00;94285.03;5074248;28;20313;-78
2021/06/06 07:26:54;;;;;;;0.40;0.40;;;;;;;13.42;100.00;94284.00;5074524;28;20222;-76
2021/06/06 07:29:23;;;;;;;1.33;0.50;;;;;;;13.30;100.00;94281.97;5074378;28;20194;-76
2021/06/06 07:31:54;;;;;;;1.05;0.47;;;;;;;13.35;100.00;94280.59;5074388;28;20199;-76
2021/06/06 07:34:22;;;;;;;0.40;0.40;;;;;;;13.53;100.00;94288.63;5074259;28;20202;-76
2021/06/06 07:36:51;;;;;;;2.83;0.70;;;;;;;13.54;100.00;94285.00;5074304;28;20235;-76
2021/06/06 07:39:17;;;;;;;3.97;0.43;;;;;;;13.42;100.00;94286.63;5073568;28;20199;-77
2021/06/06 07:41:43;;;;;;;0.50;0.50;;;;;;;13.30;100.00;94281.97;5074185;28;20226;-77
2021/06/06 07:44:11;;;;;;;0.50;0.45;;;;;;;13.41;100.00;94274.53;5074217;28;20213;-78
2021/06/06 07:46:37;;;;;;;0.50;0.50;;;;;;;13.43;100.00;94277.75;5073927;28;20234;-77
2021/06/06 07:49:04;;;;;;;0.40;0.40;;;;;;;13.54;100.00;94279.75;5073916;28;20202;-76
2021/06/06 07:51:30;;;;;;;0.40;0.40;;;;;;;13.73;100.00;94278.06;5074070;28;20558;-77
2021/06/06 07:53:56;;;;;;;0.40;0.40;;;;;;;13.66;100.00;94283.34;5074024;28;20199;-77
2021/06/06 07:56:23;;;;;;;0.50;0.50;;;;;;;13.58;100.00;94285.41;5073970;28;20209;-77
2021/06/06 07:58:49;;;;;;;1.90;0.43;;;;;;;13.66;100.00;94283.34;5073841;28;20251;-76
2021/06/06 08:01:17;;;;;;;0.43;0.40;;;;;;;13.81;100.00;94287.53;5073540;28;20203;-76
2021/06/06 08:03:43;;;;;;;0.80;0.50;;;;;;;13.62;100.00;94284.78;5073602;28;20658;-77
2021/06/06 08:06:11;;;;;;;1.17;0.50;;;;;;;13.57;100.00;94284.56;5073538;28;20712;-76
2021/06/06 08:08:37;;;;;;;0.77;0.73;;;;;;;13.60;100.00;94278.91;5073591;28;20256;-76
2021/06/06 08:11:05;;;;;;;0.50;0.50;;;;;;;13.54;100.00;94278.94;5073594;28;20209;-78
2021/06/06 08:13:32;;;;;;;2.20;0.50;;;;;;;13.38;100.00;94282.81;5073560;28;20290;-78
2021/06/06 08:15:59;;;;;;;0.50;0.50;;;;;;;13.30;100.00;94286.41;5073325;28;20198;-77
2021/06/06 08:18:29;;;;;;;0.50;0.50;;;;;;;13.41;100.00;94285.03;5073529;28;20203;-78
2021/06/06 08:20:58;;;;;;;0.45;0.40;;;;;;;13.62;100.00;94286.56;5073372;28;20203;-76
2021/06/06 08:23:25;;;;;;;0.80;0.70;;;;;;;13.71;100.00;94284.56;5073404;28;20223;-77
2021/06/06 08:25:52;;;;;;;0.50;0.50;;;;;;;13.52;100.00;94287.00;5073683;28;20255;-77
2021/06/06 08:28:20;;;;;;;1.13;0.40;;;;;;;13.45;100.00;94281.78;5075425;28;20205;-76
2021/06/06 08:30:49;;;;;;;1.97;0.40;;;;;;;13.65;100.00;94276.47;5073249;28;20203;-77
2021/06/06 08:33:17;;;;;;;0.90;0.70;;;;;;;13.74;100.00;94278.88;5073365;28;20244;-76
2021/06/06 08:35:45;;;;;;;1.03;0.70;;;;;;;13.78;100.00;94278.25;5073199;28;20210;-76
2021/06/06 08:38:11;;;;;;;0.60;0.60;;;;;;;13.75;100.00;94280.50;5073058;28;20202;-76
2021/06/06 08:40:51;;;;;;;2.85;0.98;;;;;;;13.64;100.00;94277.50;5073257;28;20238;-79
2021/06/06 08:43:18;;;;;;;1.87;1.07;;;;;;;13.57;100.00;94279.31;5073145;28;20201;-78
2021/06/06 08:45:49;;;;;;;2.33;1.58;;;;;;;13.67;100.00;94284.13;5073019;28;20226;-78
2021/06/06 08:48:17;;;;;;;3.50;1.70;;;;;;;13.53;100.00;94279.97;5073127;28;20221;-80
2021/06/06 08:50:47;;;;;;;6.97;2.00;;;;;;;13.54;100.00;94274.50;5072910;28;20281;-78
2021/06/06 08:53:21;;;;;;;5.67;2.33;;;;;;;13.76;100.00;94274.25;5073130;28;20207;-77
2021/06/06 08:56:01;;;;;;;4.47;1.95;;;;;;;14.11;100.00;94274.69;5072895;28;20668;-77
2021/06/06 08:58:38;;;;;;;3.47;1.90;;;;;;;14.51;100.00;94266.56;5072895;28;20680;-77
2021/06/06 09:01:13;;;;;;;2.28;1.30;;;;;;;14.72;100.00;94270.72;5073015;28;20213;-77
2021/06/06 09:03:39;;;;;;;1.05;0.80;;;;;;;14.65;100.00;94269.94;5072773;28;20202;-78
2021/06/06 09:06:14;;;;;;;1.90;1.00;;;;;;;14.65;100.00;94274.41;5072616;28;20226;-78
2021/06/06 09:08:40;;;;;;;0.90;0.70;;;;;;;14.78;100.00;94277.72;5073055;28;20202;-77
2021/06/06 09:11:10;;;;;;;2.40;0.70;;;;;;;15.03;100.00;94279.56;5072886;28;20243;-77
2021/06/06 09:13:37;;;;;;;3.42;1.00;;;;;;;15.11;100.00;94279.28;5072895;28;20207;-78
2021/06/06 09:16:13;;;;;;;1.15;0.70;;;;;;;14.82;100.00;94282.56;5072688;28;20659;-79
2021/06/06 09:18:44;;;;;;;1.02;0.70;;;;;;;14.54;100.00;94281.91;5072816;28;20233;-78
2021/06/06 09:21:15;;;;;;;2.35;0.80;;;;;;;14.02;100.00;94284.63;5072699;28;20198;-78
2021/06/06 09:23:43;;;;;;;2.38;0.85;;;;;;;14.15;100.00;94285.56;5072606;28;20698;-80
2021/06/06 09:26:11;;;;;;;1.45;0.85;;;;;;;14.15;100.00;94285.56;5072248;28;20719;-80
2021/06/06 09:28:39;;;;;;;1.20;0.90;;;;;;;14.23;100.00;94288.75;5072663;28;20287;-79
2021/06/06 09:31:07;;;;;;;0.70;0.70;;;;;;;14.25;100.00;94281.50;5072485;28;20255;-79
2021/06/06 09:33:37;;;;;;;0.95;0.70;;;;;;;13.96;100.00;94293.34;5072768;28;20530;-79
2021/06/06 09:36:15;;;;;;;3.72;0.80;;;;;;;14.03;100.00;94288.84;5072457;28;20203;-80
2021/06/06 09:38:44;;;;;;;3.67;0.77;;;;;;;13.96;100.00;94287.28;5072470;28;20206;-76
2021/06/06 09:41:19;;;;;;;1.35;0.90;;;;;;;14.11;100.00;94279.16;5092036;28;20206;-79
2021/06/06 09:43:58;;;;;;;0.80;0.80;;;;;;;13.96;100.00;94285.47;5092702;28;20202;-80
2021/06/06 09:46:24;;;;;;;1.30;0.82;;;;;;;13.93;100.00;94290.31;5092495;28;20273;-77
2021/06/06 09:48:51;;;;;;;1.02;0.80;;;;;;;14.02;100.00;94286.44;5091979;28;20263;-81
2021/06/06 09:51:26;;;;;;;2.58;0.95;;;;;;;14.22;100.00;94291.59;5092412;28;20234;-78
2021/06/06 09:53:59;;;;;;;3.25;1.10;;;;;;;14.17;100.00;94289.63;5092342;28;20202;-75
2021/06/06 09:56:28;;;;;;;3.88;1.00;;;;;;;14.17;100.00;94286.16;5092598;28;20502;-78
2021/06/06 09:59:07;;;;;;;0.80;0.80;;;;;;;14.34;100.00;94287.31;5092669;28;20244;-78
2021/06/06 10:01:36;;;;;;;1.63;1.02;;;;;;;13.99;100.00;94286.84;5092630;28;20202;-79
2021/06/06 10:04:05;;;;;;;1.45;0.70;;;;;;;13.83;100.00;94288.13;5096078;28;20225;-78
2021/06/06 10:06:33;;;;;;;1.27;0.80;;;;;;;13.88;100.00;94291.75;5095839;28;20226;-79
2021/06/06 10:09:07;;;;;;;2.20;1.20;;;;;;;13.84;100.00;94295.00;5096183;28;20402;-77
2021/06/06 10:11:48;;;;;;;1.60;0.90;;;;;;;14.11;100.00;94294.91;5096182;28;20613;-80
2021/06/06 10:14:14;;;;;;;1.73;1.10;;;;;;;14.14;100.00;94290.03;5095961;28;20680;-77
2021/06/06 10:16:45;;;;;;;1.48;1.05;;;;;;;14.23;100.00;94296.63;5095855;28;20592;-77
2021/06/06 10:19:15;;;;;;;6.80;1.20;;;;;;;13.96;100.00;94295.16;5096064;28;20198;-78
2021/06/06 10:21:44;;;;;;;2.63;1.27;;;;;;;13.84;100.00;94295.81;5096092;28;20202;-77
2021/06/06 10:24:15;;;;;;;1.15;1.05;;;;;;;13.79;100.00;94298.25;5095710;28;20236;-76
2021/06/06 10:26:46;;;;;;;3.10;1.25;;;;;;;13.88;100.00;94299.63;5096000;28;20225;-77
2021/06/06 10:29:22;;;;;;;2.28;1.20;;;;;;;13.95;100.00;94301.41;5082702;28;20203;-77
2021/06/06 10:31:50;;;;;;;2.10;1.30;;;;;;;13.82;100.00;94299.63;5075655;28;20209;-78
2021/06/06 10:34:25;;;;;;;2.15;1.25;;;;;;;13.79;100.00;94303.50;5075648;28;20199;-77
2021/06/06 10:36:52;;;;;;;1.67;1.20;;;;;;;13.66;100.00;94303.53;5075358;28;20207;-76
2021/06/06 10:39:23;;;;;;;2.25;1.50;;;;;;;13.58;100.00;94301.94;5074244;28;20430;-77
2021/06/06 10:41:54;;;;;;;4.72;1.38;;;;;;;13.64;100.00;94295.06;5075243;28;20203;-78
2021/06/06 10:44:24;;;;;;;2.93;1.40;;;;;;;13.62;100.00;94300.53;5075444;28;20203;-78
2021/06/06 10:46:53;;;;;;;4.13;1.63;;;;;;;13.67;100.00;94305.97;5075212;28;20303;-78
2021/06/06 10:49:23;;;;;;;2.45;1.20;;;;;;;13.81;100.00;94298.03;5075110;28;20203;-79
2021/06/06 10:51:52;;;;;;;2.05;1.50;;;;;;;13.86;100.00;94296.41;5075040;28;20663;-79
2021/06/06 10:54:37;;;;;;;1.73;1.30;;;;;;;13.85;100.00;94292.16;5076279;28;20202;-79
2021/06/06 10:57:07;;;;;;;2.15;1.35;;;;;;;14.04;100.00;94290.47;5075272;28;20231;-79
2021/06/06 10:59:42;;;;;;;2.25;1.15;;;;;;;14.29;100.00;94286.31;5074997;28;20194;-79
2021/06/06 11:02:10;;;;;;;1.85;1.20;;;;;;;14.52;100.00;94281.34;5074986;28;20198;-79
2021/06/06 11:04:48;;;;;;;1.10;0.98;;;;;;;14.38;100.00;94285.84;5074803;28;20248;-79
2021/06/06 11:07:35;;;;;;;1.02;0.90;;;;;;;14.48;100.00;94289.84;5074818;28;20660;-79
2021/06/06 11:10:09;;;;;;;1.67;1.10;;;;;;;14.26;100.00;94284.91;5074807;28;20198;-79
2021/06/06 11:12:38;;;;;;;1.58;1.20;;;;;;;14.34;100.00;94284.66;5074620;28;20650;-78
2021/06/06 11:15:21;;;;;;;1.95;0.88;;;;;;;14.40;100.00;94280.38;5073835;28;20228;-78
2021/06/06 11:17:47;;;;;;;2.80;1.30;;;;;;;14.56;100.00;94281.72;5074859;28;20240;-77
2021/06/06 11:20:18;;;;;;;1.55;1.40;;;;;;;14.78;100.00;94280.34;5074752;28;20205;-77
2021/06/06 11:22:45;;;;;;;2.47;1.60;;;;;;;14.73;100.00;94279.41;5074542;28;20210;-78
2021/06/06 11:25:38;;;;;;;1.45;1.33;;;;;;;14.63;100.00;94282.50;5074144;28;20234;-77
2021/06/06 11:28:26;;;;;;;2.47;1.90;;;;;;;14.41;100.00;94277.53;5074824;28;20539;-77
2021/06/06 11:30:54;;;;;;;3.17;2.28;;;;;;;14.16;100.00;94277.50;5074104;28;20654;-77